Zamora, Spain
Current Conditions -  °F | °C
As of 11:30 AM on Friday 28 Nov 2014 (Local Time) from LESA Reporting Station
Broken Clouds Broken Clouds  
Wind Chill: 50°   Ceiling: 3000
Heat Index: 50°   Visibility: 6mi
Dew Point: 43°   Wind: 12mph
Humidity: 76%   Direction: 230°SW
Pressure: 29"   Gusts: NA
Location:  41.5°N, 5.75°W
Report Text: LESA 281030Z 23010KT 210V270 9999 BKN030 BKN042 10/06 Q0982
Loading
Personal Weather Stations






























Interactive Weather Map New forecast layout! Learn more

10-Day Weather Forecast

Advertisements
Track Severe Weather on mobile